Time;durP1;ratioP1;P1;durP2;ratioP2;P2;SDS_P1;SDS_P2;PMS_P1;PMS_P2;Temp;Humidity;BMP_temperature;BMP_pressure;BME280_temperature;BME280_humidity;BME280_pressure;Samples;Min_cycle;Max_cycle;Signal;HPM_P1;HPM_P2
2023/12/18 00:00:41;;;;;;;15.23;10.60;;;;;;;2.81;91.92;100014.31;4076555;29;20333;-92
2023/12/18 00:02:45;;;;;;;14.60;10.38;;;;;;;2.81;92.05;100015.22;4092015;28;20235;-92
2023/12/18 00:04:47;;;;;;;14.75;9.57;;;;;;;2.79;91.44;100009.19;4094307;28;20205;-93
2023/12/18 00:06:50;;;;;;;15.10;10.68;;;;;;;2.80;91.40;100008.34;4080855;29;20238;-93
2023/12/18 00:08:53;;;;;;;14.05;9.80;;;;;;;2.81;91.84;100009.19;4092666;28;20685;-92
2023/12/18 00:10:57;;;;;;;14.23;8.77;;;;;;;2.81;91.15;100004.91;4072536;29;20944;-94
2023/12/18 00:13:00;;;;;;;13.73;10.20;;;;;;;2.79;90.88;99994.63;4094267;28;20300;-95
2023/12/18 00:15:04;;;;;;;13.60;10.18;;;;;;;2.81;91.40;99994.59;4063309;29;20219;-93
2023/12/18 00:17:07;;;;;;;14.90;10.07;;;;;;;2.81;91.08;99988.56;4077323;29;20210;-92
2023/12/18 00:19:10;;;;;;;15.57;10.25;;;;;;;2.81;91.02;99991.16;4093042;28;20216;-94
2023/12/18 00:21:15;;;;;;;15.13;10.70;;;;;;;2.82;92.30;99983.41;4076469;29;20248;-93
2023/12/18 00:23:18;;;;;;;17.70;10.23;;;;;;;2.82;91.70;99974.84;4077166;29;20689;-94
2023/12/18 00:25:21;;;;;;;13.18;9.50;;;;;;;2.83;92.01;99979.13;4061274;29;20211;-94
2023/12/18 00:27:26;;;;;;;15.20;10.07;;;;;;;2.84;91.66;99973.09;4062073;29;20729;-94
2023/12/18 00:29:30;;;;;;;14.52;10.10;;;;;;;2.85;91.48;99977.38;4090919;28;20730;-94
2023/12/18 00:31:33;;;;;;;15.07;9.80;;;;;;;2.79;90.93;99959.41;4078808;29;20257;-94
2023/12/18 00:33:36;;;;;;;16.48;10.48;;;;;;;2.77;90.85;99963.72;4062627;29;20203;-94
2023/12/18 00:35:40;;;;;;;17.90;11.15;;;;;;;2.77;90.33;99968.88;4090826;28;20202;-93
2023/12/18 00:37:43;;;;;;;17.15;11.65;;;;;;;2.75;91.09;99962.03;4076699;29;20253;-95
2023/12/18 00:39:46;;;;;;;20.55;11.90;;;;;;;2.75;90.69;99964.59;4076454;29;20544;-93
2023/12/18 00:41:51;;;;;;;16.10;10.50;;;;;;;2.73;90.86;99964.59;4059310;29;20293;-94
2023/12/18 00:43:56;;;;;;;18.55;10.90;;;;;;;2.71;91.25;99966.34;4075100;29;20207;-95
2023/12/18 00:46:00;;;;;;;15.63;10.93;;;;;;;2.73;90.75;99963.75;4086961;29;20679;-94
2023/12/18 00:48:04;;;;;;;19.67;10.73;;;;;;;2.72;91.27;99954.31;4075492;29;20279;-94
2023/12/18 00:50:09;;;;;;;16.13;10.98;;;;;;;2.73;91.53;99961.19;4096162;29;20206;-95
2023/12/18 00:52:13;;;;;;;16.52;11.07;;;;;;;2.76;91.47;99958.59;4080925;29;20237;-94
2023/12/18 00:54:16;;;;;;;15.27;9.43;;;;;;;2.73;91.75;99963.75;4075544;29;20202;-94
2023/12/18 00:56:19;;;;;;;16.42;10.32;;;;;;;2.73;91.51;99962.03;4080545;28;20213;-94
2023/12/18 00:58:22;;;;;;;12.75;9.63;;;;;;;2.75;91.38;99952.56;4077274;29;20245;-94
2023/12/18 01:00:27;;;;;;;14.38;9.82;;;;;;;2.76;90.88;99954.28;4092003;28;20609;-94
2023/12/18 01:02:30;;;;;;;13.27;8.35;;;;;;;2.76;90.96;99958.59;4093216;28;20300;-94
2023/12/18 01:04:34;;;;;;;15.05;9.00;;;;;;;2.74;91.56;99956.03;4079480;29;20201;-94
2023/12/18 01:06:37;;;;;;;11.52;8.55;;;;;;;2.72;91.21;99955.19;4077641;29;20211;-95
2023/12/18 01:08:40;;;;;;;17.17;10.82;;;;;;;2.73;90.82;99962.03;4078983;29;20925;-94
2023/12/18 01:10:43;;;;;;;14.82;10.23;;;;;;;2.74;90.54;99956.03;4089738;28;20214;-94
2023/12/18 01:12:46;;;;;;;14.15;9.35;;;;;;;2.70;90.21;99962.06;4079925;29;20198;-94
2023/12/18 01:14:50;;;;;;;16.13;9.63;;;;;;;2.63;90.26;99956.97;4094684;28;20206;-94
2023/12/18 01:16:54;;;;;;;13.85;9.63;;;;;;;2.53;88.91;99960.47;4090808;28;20647;-95
2023/12/18 01:18:57;;;;;;;14.30;10.50;;;;;;;2.43;88.26;99954.50;4079293;29;20231;-95
2023/12/18 01:21:03;;;;;;;16.98;10.30;;;;;;;2.34;88.18;99946.84;4078020;29;20210;-95
2023/12/18 01:23:06;;;;;;;17.13;11.38;;;;;;;2.28;88.89;99947.78;4077209;29;20297;-95
2023/12/18 01:25:10;;;;;;;18.08;9.70;;;;;;;2.26;89.95;99942.63;4063104;29;20216;-94
2023/12/18 01:27:13;;;;;;;13.80;9.27;;;;;;;2.30;90.18;99952.06;4066284;29;20251;-94
2023/12/18 01:29:15;;;;;;;12.10;8.80;;;;;;;2.32;90.28;99952.06;4090400;28;20236;-95
2023/12/18 01:31:22;;;;;;;13.55;9.25;;;;;;;2.33;90.99;99948.59;4096369;28;20651;-94
2023/12/18 01:33:27;;;;;;;13.80;9.35;;;;;;;2.35;91.79;99951.16;4094452;28;20645;-94
2023/12/18 01:35:30;;;;;;;14.43;10.40;;;;;;;2.34;91.04;99946.84;4089576;28;20210;-94
2023/12/18 01:37:33;;;;;;;16.77;9.85;;;;;;;2.33;90.79;99946.91;4080329;29;20233;-94
2023/12/18 01:39:36;;;;;;;12.48;8.77;;;;;;;2.33;90.55;99945.16;4094554;28;20259;-94
2023/12/18 01:41:39;;;;;;;14.90;8.73;;;;;;;2.37;91.12;99948.56;4080068;29;20226;-94
2023/12/18 01:43:43;;;;;;;12.25;8.77;;;;;;;2.41;91.20;99940.81;4095381;28;20439;-95
2023/12/18 01:45:46;;;;;;;11.77;8.13;;;;;;;2.43;90.81;99933.91;4080874;29;20206;-95
2023/12/18 01:47:49;;;;;;;11.10;8.05;;;;;;;2.43;91.21;99939.06;4077927;29;20219;-95
2023/12/18 01:49:54;;;;;;;13.40;8.52;;;;;;;2.46;90.55;99941.63;4090676;28;20217;-94
2023/12/18 01:51:57;;;;;;;11.30;7.85;;;;;;;2.48;91.09;99947.63;4076941;29;20221;-95
2023/12/18 01:53:59;;;;;;;10.98;7.80;;;;;;;2.50;91.38;99945.91;4081094;29;20206;-93
2023/12/18 01:56:04;;;;;;;11.07;7.72;;;;;;;2.50;91.38;99938.19;4080002;29;24834;-94
2023/12/18 01:58:06;;;;;;;12.70;7.90;;;;;;;2.51;90.47;99933.88;4062859;29;20257;-94
2023/12/18 02:00:11;;;;;;;10.40;7.53;;;;;;;2.50;90.45;99929.63;4090138;28;20216;-95
2023/12/18 02:02:14;;;;;;;13.10;8.02;;;;;;;2.47;90.26;99932.19;4079743;29;20221;-94
2023/12/18 02:04:18;;;;;;;10.82;7.35;;;;;;;2.46;90.89;99926.19;4079865;29;20262;-94
2023/12/18 02:06:23;;;;;;;9.23;7.22;;;;;;;2.49;90.06;99923.59;4079807;29;20345;-95
2023/12/18 02:08:26;;;;;;;10.85;8.02;;;;;;;2.45;90.67;99924.50;4066693;29;20318;-94
2023/12/18 02:10:29;;;;;;;14.85;7.60;;;;;;;2.46;90.51;99922.75;4076720;29;20712;-94
2023/12/18 02:12:32;;;;;;;12.35;8.10;;;;;;;2.45;90.52;99927.06;4081345;29;20257;-94
2023/12/18 02:14:36;;;;;;;10.20;7.38;;;;;;;2.46;90.56;99928.75;4080621;29;20258;-93
2023/12/18 02:16:38;;;;;;;11.05;8.25;;;;;;;2.46;90.21;99923.59;4096479;28;20304;-96
2023/12/18 02:18:45;;;;;;;12.02;8.35;;;;;;;2.47;90.45;99929.63;4081306;29;20209;-95
2023/12/18 02:20:48;;;;;;;10.77;7.50;;;;;;;2.43;90.96;99915.06;4090432;28;20305;-94
2023/12/18 02:22:53;;;;;;;9.57;7.30;;;;;;;2.44;90.82;99920.19;4081891;29;20211;-95
2023/12/18 02:24:56;;;;;;;12.18;7.78;;;;;;;2.42;90.45;99916.78;4080174;29;20692;-94
2023/12/18 02:27:00;;;;;;;11.38;7.55;;;;;;;2.45;90.69;99916.78;4081518;29;20210;-94
2023/12/18 02:29:03;;;;;;;12.27;7.70;;;;;;;2.46;90.79;99915.03;4065466;29;20231;-95
2023/12/18 02:31:08;;;;;;;9.68;6.65;;;;;;;2.44;90.96;99912.47;4078340;29;20295;-95
2023/12/18 02:33:11;;;;;;;11.30;6.97;;;;;;;2.44;91.04;99907.34;4079960;29;20265;-95
2023/12/18 02:35:15;;;;;;;11.82;7.35;;;;;;;2.45;90.62;99908.16;4066350;29;20650;-95
2023/12/18 02:37:18;;;;;;;9.90;7.63;;;;;;;2.42;90.42;99903.03;4091334;28;20236;-95
2023/12/18 02:39:23;;;;;;;9.95;7.25;;;;;;;2.44;90.73;99904.75;4078422;29;20198;-95
2023/12/18 02:41:26;;;;;;;10.75;7.10;;;;;;;2.48;91.14;99906.47;4078291;29;20297;-94
2023/12/18 02:43:29;;;;;;;9.88;6.85;;;;;;;2.46;90.82;99902.16;4081261;29;20210;-95
2023/12/18 02:45:32;;;;;;;11.98;7.00;;;;;;;2.46;90.78;99897.88;4079188;29;20240;-96
2023/12/18 02:47:36;;;;;;;11.15;7.18;;;;;;;2.46;91.22;99900.44;4080473;29;20297;-95
2023/12/18 02:49:39;;;;;;;9.73;6.85;;;;;;;2.47;90.89;99897.00;4063104;29;20225;-93
2023/12/18 02:51:42;;;;;;;10.25;7.00;;;;;;;2.47;90.74;99894.44;4091685;28;20732;-94
2023/12/18 02:53:44;;;;;;;10.75;6.70;;;;;;;2.46;90.62;99892.72;4090849;28;20699;-93
2023/12/18 02:55:49;;;;;;;8.40;6.50;;;;;;;2.45;90.62;99895.31;4074621;29;20301;-94
2023/12/18 02:57:52;;;;;;;9.90;7.38;;;;;;;2.48;90.84;99890.13;4078173;29;20217;-93
2023/12/18 02:59:55;;;;;;;10.40;7.32;;;;;;;2.48;91.14;99895.28;4077389;29;20213;-94
2023/12/18 03:01:59;;;;;;;10.63;7.05;;;;;;;2.50;90.74;99891.00;4080013;29;20205;-93
2023/12/18 03:04:01;;;;;;;11.27;7.18;;;;;;;2.52;90.87;99887.53;4078576;29;20206;-94
2023/12/18 03:06:05;;;;;;;10.20;7.18;;;;;;;2.52;90.70;99895.25;4076876;29;20206;-95
2023/12/18 03:08:08;;;;;;;10.90;7.55;;;;;;;2.51;91.11;99893.56;4077372;29;20264;-95
2023/12/18 03:10:12;;;;;;;9.65;7.00;;;;;;;2.52;90.74;99891.81;4079465;29;20222;-94
2023/12/18 03:12:16;;;;;;;9.90;7.18;;;;;;;2.50;90.81;99889.25;4080571;29;20202;-94
2023/12/18 03:14:19;;;;;;;8.00;6.65;;;;;;;2.48;90.77;99890.13;4078378;29;20203;-92
2023/12/18 03:16:22;;;;;;;7.90;6.82;;;;;;;2.51;90.40;99890.09;4092759;28;20263;-94
2023/12/18 03:18:26;;;;;;;8.90;6.57;;;;;;;2.50;89.97;99884.13;4093157;28;20264;-95
2023/12/18 03:20:29;;;;;;;9.98;7.13;;;;;;;2.50;89.83;99880.69;4078207;29;20250;-94
2023/12/18 03:22:32;;;;;;;11.23;7.15;;;;;;;2.46;90.24;99886.72;4078095;28;20198;-94
2023/12/18 03:24:35;;;;;;;11.02;7.68;;;;;;;2.46;89.75;99881.59;4075517;29;20710;-94
2023/12/18 03:26:39;;;;;;;9.60;7.22;;;;;;;2.45;90.54;99879.84;4081322;29;20713;-93
2023/12/18 03:28:44;;;;;;;10.73;7.50;;;;;;;2.44;90.54;99884.16;4076496;29;20662;-94
2023/12/18 03:30:47;;;;;;;8.63;6.38;;;;;;;2.42;89.90;99880.75;4089174;28;20317;-94
2023/12/18 03:32:50;;;;;;;9.98;6.75;;;;;;;2.43;89.92;99876.44;4076158;29;20225;-94
2023/12/18 03:34:53;;;;;;;9.95;7.50;;;;;;;2.41;89.97;99867.91;4075659;29;20254;-92
2023/12/18 03:36:55;;;;;;;9.20;6.72;;;;;;;2.41;89.76;99871.31;4093813;29;20213;-95
2023/12/18 03:39:00;;;;;;;9.70;6.80;;;;;;;2.39;90.38;99864.47;4081450;29;20715;-94
2023/12/18 03:41:05;;;;;;;11.68;7.47;;;;;;;2.40;90.57;99868.75;4090264;28;20223;-93
2023/12/18 03:43:08;;;;;;;8.90;7.10;;;;;;;2.40;90.73;99871.31;4072660;29;20301;-94
2023/12/18 03:45:12;;;;;;;10.30;6.95;;;;;;;2.39;90.59;99873.06;4067652;29;20211;-95
2023/12/18 03:47:16;;;;;;;9.10;6.63;;;;;;;2.38;90.25;99871.34;4079739;29;20257;-94
2023/12/18 03:49:19;;;;;;;9.20;7.07;;;;;;;2.36;90.38;99869.63;4062977;29;20207;-94
2023/12/18 03:51:22;;;;;;;9.32;7.30;;;;;;;2.36;90.60;99867.94;4077067;29;20238;-92
2023/12/18 03:53:25;;;;;;;10.85;7.45;;;;;;;2.34;90.24;99868.81;4060095;29;20207;-94
2023/12/18 03:55:29;;;;;;;14.32;7.82;;;;;;;2.34;90.22;99869.66;4064787;29;20207;-93
2023/12/18 03:57:32;;;;;;;8.07;6.75;;;;;;;2.32;90.01;99861.97;4094565;28;20209;-94
2023/12/18 03:59:34;;;;;;;9.25;7.32;;;;;;;2.32;90.49;99867.97;4090726;28;20220;-95
2023/12/18 04:01:38;;;;;;;10.02;7.40;;;;;;;2.33;90.50;99855.94;4077673;29;20203;-95
2023/12/18 04:03:41;;;;;;;13.75;8.20;;;;;;;2.33;90.27;99859.41;4080016;29;20210;-94
2023/12/18 04:05:44;;;;;;;8.60;6.82;;;;;;;2.33;90.28;99855.94;4093930;28;20724;-94
2023/12/18 04:07:47;;;;;;;12.18;7.20;;;;;;;2.32;90.29;99851.69;4079601;29;20262;-95
2023/12/18 04:09:50;;;;;;;10.40;6.75;;;;;;;2.32;90.41;99860.25;4076506;29;20281;-96
2023/12/18 04:11:54;;;;;;;10.57;7.25;;;;;;;2.33;90.35;99847.38;4065129;29;20289;-93
2023/12/18 04:13:57;;;;;;;14.98;7.45;;;;;;;2.33;90.73;99857.66;4073636;29;20215;-92
2023/12/18 04:16:00;;;;;;;10.63;7.15;;;;;;;2.32;90.30;99852.53;4078418;29;20206;-94
2023/12/18 04:18:07;;;;;;;8.65;6.50;;;;;;;2.32;89.64;99847.38;4078261;29;20310;-94
2023/12/18 04:20:11;;;;;;;11.80;7.18;;;;;;;2.32;89.92;99852.53;4078827;28;20741;-94
2023/12/18 04:22:14;;;;;;;10.95;8.20;;;;;;;2.32;90.23;99852.53;4077343;29;20720;-94
2023/12/18 04:24:17;;;;;;;9.48;6.75;;;;;;;2.32;90.36;99849.97;4097619;28;20296;-94
2023/12/18 04:26:21;;;;;;;12.25;7.70;;;;;;;2.30;90.42;99846.56;4099145;28;20216;-94
2023/12/18 04:28:25;;;;;;;10.63;7.28;;;;;;;2.32;89.93;99851.69;4083340;29;20241;-95
2023/12/18 04:30:28;;;;;;;9.00;6.55;;;;;;;2.30;90.30;99843.09;4081666;29;20815;-95
2023/12/18 04:32:31;;;;;;;8.48;6.78;;;;;;;2.33;89.55;99849.09;4066004;29;20740;-94
2023/12/18 04:34:36;;;;;;;10.60;7.28;;;;;;;2.31;89.94;99839.69;4079568;29;20210;-92
2023/12/18 04:36:39;;;;;;;9.38;7.03;;;;;;;2.33;89.77;99848.22;4082186;29;20618;-94
2023/12/18 04:38:45;;;;;;;9.30;7.18;;;;;;;2.33;89.76;99848.22;4063995;29;20580;-95
2023/12/18 04:40:49;;;;;;;9.80;6.80;;;;;;;2.33;90.01;99846.53;4069015;29;20217;-95
2023/12/18 04:42:53;;;;;;;10.85;7.57;;;;;;;2.33;90.05;99848.22;4062722;29;20222;-95
2023/12/18 04:44:57;;;;;;;9.32;7.20;;;;;;;2.36;90.51;99854.19;4062705;29;20217;-95
2023/12/18 04:47:01;;;;;;;10.63;6.85;;;;;;;2.32;89.83;99849.97;4094837;28;20693;-91
2023/12/18 04:49:04;;;;;;;9.50;6.85;;;;;;;2.35;90.04;99848.19;4082056;29;20216;-91
2023/12/18 04:51:09;;;;;;;10.93;7.53;;;;;;;2.38;89.72;99853.31;4089903;29;20724;-94
2023/12/18 04:53:12;;;;;;;11.38;7.20;;;;;;;2.33;90.01;99843.06;4091620;29;20210;-94
2023/12/18 04:55:15;;;;;;;8.40;6.93;;;;;;;2.33;90.02;99843.06;4090308;29;20203;-92
2023/12/18 04:57:18;;;;;;;9.80;6.68;;;;;;;2.31;89.91;99845.66;4089834;29;20229;-93
2023/12/18 04:59:21;;;;;;;11.40;6.88;;;;;;;2.30;90.17;99853.41;4085260;29;20641;-93
2023/12/18 05:01:24;;;;;;;9.80;7.10;;;;;;;2.29;89.92;99854.28;4061178;29;20258;-94
2023/12/18 05:03:28;;;;;;;10.10;7.72;;;;;;;2.28;89.82;99857.72;4077891;29;20218;-93
2023/12/18 05:05:31;;;;;;;8.55;7.13;;;;;;;2.24;89.61;99850.88;4078144;29;20293;-92
2023/12/18 05:07:35;;;;;;;15.48;7.28;;;;;;;2.22;90.09;99856.03;4064349;28;20301;-93
2023/12/18 05:09:39;;;;;;;9.75;6.50;;;;;;;2.23;89.58;99860.31;4066088;29;20294;-93
2023/12/18 05:11:42;;;;;;;10.82;7.00;;;;;;;2.22;90.10;99855.19;4082321;29;20230;-93
2023/12/18 05:13:45;;;;;;;8.55;6.72;;;;;;;2.24;90.21;99853.44;4095311;28;20252;-92
2023/12/18 05:15:48;;;;;;;10.38;7.20;;;;;;;2.23;90.01;99854.31;4095109;28;20369;-93
2023/12/18 05:17:52;;;;;;;10.43;6.90;;;;;;;2.26;90.21;99854.31;4095532;28;20673;-93
2023/12/18 05:19:55;;;;;;;10.07;7.45;;;;;;;2.28;90.24;99848.25;4094868;28;20216;-93
2023/12/18 05:21:58;;;;;;;12.85;7.80;;;;;;;2.31;89.87;99847.41;4079600;29;20220;-93
2023/12/18 05:24:02;;;;;;;9.43;7.03;;;;;;;2.33;90.31;99848.22;4079323;29;20385;-93
2023/12/18 05:26:05;;;;;;;9.30;7.43;;;;;;;2.33;90.44;99847.38;4064604;29;20199;-93
2023/12/18 05:28:07;;;;;;;10.32;7.53;;;;;;;2.33;90.88;99845.66;4078369;29;20203;-94
2023/12/18 05:30:11;;;;;;;11.02;8.55;;;;;;;2.32;90.70;99847.38;4096187;28;20209;-95
2023/12/18 05:32:14;;;;;;;11.10;8.25;;;;;;;2.33;90.84;99850.81;4082496;29;20241;-93
2023/12/18 05:34:17;;;;;;;10.50;8.07;;;;;;;2.32;90.90;99851.69;4079664;29;20202;-93
2023/12/18 05:36:21;;;;;;;9.75;7.45;;;;;;;2.35;90.52;99847.34;4095251;28;20237;-93
2023/12/18 05:38:24;;;;;;;10.77;7.50;;;;;;;2.33;90.42;99843.06;4074194;29;20214;-93
2023/12/18 05:40:29;;;;;;;9.93;8.05;;;;;;;2.32;90.42;99841.41;4082339;29;20218;-92
2023/12/18 05:42:32;;;;;;;9.98;7.65;;;;;;;2.32;90.59;99851.69;4080014;29;20310;-93
2023/12/18 05:44:35;;;;;;;10.40;7.80;;;;;;;2.31;90.65;99849.97;4080856;29;20245;-91
2023/12/18 05:46:38;;;;;;;10.25;7.95;;;;;;;2.29;89.75;99852.56;4076126;29;20233;-94
2023/12/18 05:48:40;;;;;;;12.02;8.00;;;;;;;2.27;89.75;99853.41;4080849;29;20209;-94
2023/12/18 05:50:44;;;;;;;11.50;8.98;;;;;;;2.25;89.46;99855.16;4091987;28;20289;-94
2023/12/18 05:52:47;;;;;;;9.02;7.80;;;;;;;2.22;89.56;99860.31;4077196;29;20240;-93
2023/12/18 05:54:50;;;;;;;11.65;7.93;;;;;;;2.22;89.34;99860.31;4077118;29;20214;-94
2023/12/18 05:56:55;;;;;;;12.07;8.00;;;;;;;2.20;88.78;99856.91;4082886;29;20256;-94
2023/12/18 05:58:59;;;;;;;10.43;7.97;;;;;;;2.19;89.34;99866.34;4064331;29;20283;-93
2023/12/18 06:01:02;;;;;;;11.68;7.80;;;;;;;2.18;89.22;99861.19;4076454;29;20326;-93
2023/12/18 06:03:05;;;;;;;9.90;7.65;;;;;;;2.15;88.52;99866.38;4060719;29;20203;-94
2023/12/18 06:05:12;;;;;;;10.80;7.90;;;;;;;2.11;89.17;99856.97;4079094;29;20232;-93
2023/12/18 06:07:15;;;;;;;13.65;8.00;;;;;;;2.10;88.76;99857.84;4092485;28;20214;-93
2023/12/18 06:09:18;;;;;;;12.23;7.45;;;;;;;2.06;89.03;99857.00;4077336;29;20297;-92
2023/12/18 06:11:21;;;;;;;10.13;7.72;;;;;;;2.10;88.74;99850.13;4080973;29;20956;-94
2023/12/18 06:13:26;;;;;;;12.77;8.35;;;;;;;2.11;88.95;99852.69;4098273;28;20276;-94
2023/12/18 06:15:29;;;;;;;12.20;8.20;;;;;;;2.11;89.50;99854.41;4075492;29;20346;-94
2023/12/18 06:17:32;;;;;;;13.95;9.40;;;;;;;2.11;89.62;99859.56;4080918;29;20206;-92
2023/12/18 06:19:36;;;;;;;12.50;8.40;;;;;;;2.07;89.15;99863.84;4081506;28;20262;-94
2023/12/18 06:21:40;;;;;;;13.18;8.27;;;;;;;2.04;89.09;99863.88;4091934;28;20624;-93
2023/12/18 06:23:43;;;;;;;13.57;8.45;;;;;;;2.05;88.88;99862.16;4074392;29;20249;-95
2023/12/18 06:25:46;;;;;;;11.23;7.70;;;;;;;2.07;89.72;99863.00;4076190;29;20210;-94
2023/12/18 06:27:49;;;;;;;12.27;8.38;;;;;;;2.05;90.13;99863.00;4077780;29;20230;-93
2023/12/18 06:29:54;;;;;;;10.88;8.25;;;;;;;2.04;89.24;99855.31;4059838;29;20243;-93
2023/12/18 06:31:57;;;;;;;9.98;7.63;;;;;;;2.01;89.02;99866.44;4070417;29;20623;-94
2023/12/18 06:34:01;;;;;;;10.50;7.80;;;;;;;1.98;89.16;99866.47;4079367;29;20234;-94
2023/12/18 06:36:05;;;;;;;10.82;7.95;;;;;;;1.98;88.93;99868.19;4067384;29;20210;-94
2023/12/18 06:38:08;;;;;;;10.40;7.97;;;;;;;2.02;89.46;99867.34;4075119;29;20218;-94
2023/12/18 06:40:12;;;;;;;12.43;8.07;;;;;;;2.02;89.50;99880.19;4087195;29;20217;-94
2023/12/18 06:42:15;;;;;;;14.02;8.75;;;;;;;1.99;89.56;99872.50;4081898;29;20210;-93
2023/12/18 06:44:19;;;;;;;11.68;7.78;;;;;;;1.98;89.74;99875.91;4080738;29;20226;-91
2023/12/18 06:46:23;;;;;;;10.88;8.25;;;;;;;1.97;89.32;99875.06;4078977;29;20206;-90
2023/12/18 06:48:26;;;;;;;10.30;8.00;;;;;;;2.01;89.08;99878.47;4076709;29;20648;-95
2023/12/18 06:50:31;;;;;;;13.15;7.80;;;;;;;2.01;89.26;99876.75;4089257;28;20664;-96
2023/12/18 06:52:34;;;;;;;11.40;8.18;;;;;;;1.96;89.26;99875.09;4090981;28;20648;-95
2023/12/18 06:54:37;;;;;;;11.68;8.25;;;;;;;1.95;88.77;99881.09;4077177;29;20265;-95
2023/12/18 06:56:40;;;;;;;13.85;8.45;;;;;;;1.89;88.36;99875.97;4065774;29;20214;-96
2023/12/18 06:58:44;;;;;;;10.10;7.80;;;;;;;1.82;87.97;99865.72;4065709;29;20297;-96
2023/12/18 07:00:47;;;;;;;9.13;7.43;;;;;;;1.78;88.23;99875.19;4063023;29;20730;-96
2023/12/18 07:02:52;;;;;;;11.38;8.20;;;;;;;1.73;88.34;99876.94;4076210;29;20212;-95
2023/12/18 07:04:54;;;;;;;13.40;8.75;;;;;;;1.73;88.72;99874.38;4079797;29;20214;-93
2023/12/18 07:06:57;;;;;;;11.07;7.90;;;;;;;1.76;88.86;99876.91;4076974;29;20207;-94
2023/12/18 07:09:00;;;;;;;11.85;7.65;;;;;;;1.74;89.25;99870.91;4087401;28;20261;-96
2023/12/18 07:11:03;;;;;;;10.60;7.65;;;;;;;1.81;89.39;99876.91;4079362;29;20237;-93
2023/12/18 07:13:06;;;;;;;11.60;7.95;;;;;;;1.83;89.44;99881.16;4077454;29;20230;-94
2023/12/18 07:15:10;;;;;;;10.27;8.43;;;;;;;1.87;90.18;99882.84;4073359;28;20239;-93
2023/12/18 07:17:13;;;;;;;14.90;9.30;;;;;;;1.87;90.92;99884.56;4058172;29;20266;-94
2023/12/18 07:19:18;;;;;;;12.00;9.35;;;;;;;1.94;90.82;99894.81;4080502;28;20669;-94
2023/12/18 07:21:21;;;;;;;10.35;8.25;;;;;;;1.94;90.22;99894.81;4077745;29;20333;-94
2023/12/18 07:23:25;;;;;;;11.82;8.82;;;;;;;1.92;89.93;99893.97;4063959;29;20752;-92
2023/12/18 07:25:28;;;;;;;12.80;8.40;;;;;;;1.94;89.96;99890.53;4057814;29;20761;-87
2023/12/18 07:27:31;;;;;;;11.10;8.50;;;;;;;1.94;89.59;99895.66;4072905;29;20697;-90
2023/12/18 07:29:34;;;;;;;13.50;9.20;;;;;;;1.91;89.75;99897.41;4080967;29;20308;-95
2023/12/18 07:31:37;;;;;;;12.65;8.75;;;;;;;1.92;89.45;99896.53;4081611;29;20222;-94
2023/12/18 07:33:41;;;;;;;14.32;8.15;;;;;;;1.96;89.01;99893.09;4091101;28;20229;-94
2023/12/18 07:35:46;;;;;;;10.98;8.60;;;;;;;2.00;89.40;99899.91;4082414;29;20206;-94
2023/12/18 07:37:50;;;;;;;13.52;9.32;;;;;;;2.02;89.38;99908.50;4065013;29;20245;-93
2023/12/18 07:39:53;;;;;;;13.70;9.07;;;;;;;2.04;90.12;99909.31;4081331;29;20218;-96
2023/12/18 07:41:56;;;;;;;13.57;9.50;;;;;;;1.99;89.23;99895.66;4067922;29;20211;-93
2023/12/18 07:43:59;;;;;;;13.10;8.50;;;;;;;1.95;88.17;99902.50;4063504;29;20266;-96
2023/12/18 07:46:02;;;;;;;11.30;8.43;;;;;;;1.92;88.18;99907.69;4064757;29;20211;-95
2023/12/18 07:48:06;;;;;;;12.20;8.88;;;;;;;1.90;89.03;99906.81;4081115;28;20210;-96
2023/12/18 07:50:10;;;;;;;12.85;9.25;;;;;;;1.95;89.12;99907.63;4076341;29;20234;-93
2023/12/18 07:52:15;;;;;;;13.48;9.38;;;;;;;2.05;88.73;99909.31;4094634;29;20613;-93
2023/12/18 07:54:18;;;;;;;13.30;10.27;;;;;;;2.21;88.75;99912.63;4088496;28;20206;-91
2023/12/18 07:56:22;;;;;;;13.52;9.50;;;;;;;2.34;89.52;99918.53;4080220;29;20198;-92
2023/12/18 07:58:25;;;;;;;15.20;10.48;;;;;;;2.51;88.86;99928.72;4077229;29;20245;-91
2023/12/18 08:00:29;;;;;;;12.90;9.70;;;;;;;2.66;89.47;99921.75;4075535;29;20253;-93
2023/12/18 08:02:32;;;;;;;14.32;10.57;;;;;;;2.78;89.23;99926.78;4081464;29;20210;-92
2023/12/18 08:04:35;;;;;;;14.43;10.27;;;;;;;2.86;88.84;99925.88;4077595;29;20210;-89
2023/12/18 08:06:39;;;;;;;16.10;10.55;;;;;;;2.93;88.79;99929.22;4078091;29;20652;-90
2023/12/18 08:08:43;;;;;;;14.13;10.00;;;;;;;3.03;88.56;99936.88;4078384;29;20206;-90
2023/12/18 08:10:47;;;;;;;17.42;10.65;;;;;;;3.11;88.63;99932.53;4079104;29;20913;-89
2023/12/18 08:12:51;;;;;;;14.40;10.25;;;;;;;3.20;87.95;99934.97;4078403;29;20602;-89
2023/12/18 08:14:54;;;;;;;16.48;10.77;;;;;;;3.27;88.16;99934.91;4076618;29;20901;-88
2023/12/18 08:16:57;;;;;;;18.48;10.23;;;;;;;3.32;88.48;99935.72;4075484;29;20237;-88
2023/12/18 08:18:59;;;;;;;15.98;11.00;;;;;;;3.42;89.48;99932.16;4075529;29;20654;-90
2023/12/18 08:21:03;;;;;;;15.35;11.05;;;;;;;3.50;89.64;99927.81;4076932;29;20217;-89
2023/12/18 08:23:07;;;;;;;16.48;11.32;;;;;;;3.57;88.80;99929.41;4081943;29;20270;-90
2023/12/18 08:25:11;;;;;;;15.18;9.63;;;;;;;3.67;88.72;99935.31;4074992;29;20207;-86
2023/12/18 08:27:14;;;;;;;14.95;10.77;;;;;;;3.71;87.37;99926.69;4072407;29;20296;-85
2023/12/18 08:29:17;;;;;;;15.23;10.57;;;;;;;3.78;88.39;99940.34;4059970;29;20230;-89
2023/12/18 08:31:21;;;;;;;17.00;10.45;;;;;;;3.85;88.42;99933.41;4077995;29;20230;-89
2023/12/18 08:33:25;;;;;;;16.65;11.43;;;;;;;3.89;88.02;99927.31;4095955;28;20229;-90
2023/12/18 08:35:28;;;;;;;16.02;11.75;;;;;;;3.95;88.14;99932.38;4076310;28;20267;-90
2023/12/18 08:37:31;;;;;;;19.40;12.25;;;;;;;3.98;88.54;99937.50;4077715;29;20206;-87
2023/12/18 08:39:35;;;;;;;15.23;10.77;;;;;;;4.00;87.37;99939.22;4075307;29;20261;-89
2023/12/18 08:41:41;;;;;;;16.65;11.55;;;;;;;4.03;88.19;99946.03;4073724;29;20212;-90
2023/12/18 08:43:44;;;;;;;16.05;11.48;;;;;;;4.09;87.68;99923.59;4078704;29;20266;-89
2023/12/18 08:45:57;;;;;;;12.57;10.45;;;;;;;4.18;88.16;99930.34;4054034;29;20258;-90
2023/12/18 08:48:01;;;;;;;14.32;10.30;;;;;;;4.25;89.13;99932.81;4076060;28;20293;-91
2023/12/18 08:50:05;;;;;;;13.30;10.40;;;;;;;4.30;87.89;99926.75;4075277;29;20658;-89
2023/12/18 08:52:08;;;;;;;12.82;10.18;;;;;;;4.36;88.26;99928.34;4078749;29;20252;-91
2023/12/18 08:54:11;;;;;;;15.43;10.50;;;;;;;4.37;87.79;99933.50;4077620;29;20246;-89
2023/12/18 08:56:14;;;;;;;13.50;10.80;;;;;;;4.37;86.48;99927.50;4091267;28;20650;-89
2023/12/18 08:58:20;;;;;;;19.63;11.25;;;;;;;4.46;87.62;99930.78;4063467;29;20219;-87
2023/12/18 09:00:24;;;;;;;13.10;10.30;;;;;;;4.50;87.60;99929.03;4076579;29;20249;-91
2023/12/18 09:02:27;;;;;;;15.15;10.52;;;;;;;4.50;88.05;99929.03;4072468;29;20208;-93
2023/12/18 09:04:30;;;;;;;17.02;11.70;;;;;;;4.52;86.85;99927.28;4077125;29;20246;-92
2023/12/18 09:06:36;;;;;;;17.98;11.43;;;;;;;4.52;87.16;99925.53;4094873;28;20284;-89
2023/12/18 09:08:40;;;;;;;15.18;11.23;;;;;;;4.61;88.22;99927.97;4095113;28;20740;-91
2023/12/18 09:10:44;;;;;;;14.63;10.80;;;;;;;4.70;88.55;99927.84;4079772;29;20254;-91
2023/12/18 09:12:47;;;;;;;14.13;10.82;;;;;;;4.81;89.30;99934.56;4092966;28;20602;-92
2023/12/18 09:14:52;;;;;;;16.38;12.27;;;;;;;4.91;89.17;99930.91;4090734;28;20217;-91
2023/12/18 09:16:55;;;;;;;17.17;11.80;;;;;;;4.97;89.01;99932.56;4080323;29;20213;-92
2023/12/18 09:18:58;;;;;;;18.40;11.10;;;;;;;4.96;87.62;99929.13;4075487;29;20280;-93
2023/12/18 09:21:02;;;;;;;13.38;10.95;;;;;;;4.94;88.84;99924.84;4097479;28;20241;-91
2023/12/18 09:23:08;;;;;;;15.80;11.05;;;;;;;4.98;88.16;99922.19;4094305;28;20205;-93
2023/12/18 09:25:11;;;;;;;16.35;12.27;;;;;;;5.06;88.63;99922.06;4080146;29;20614;-91
2023/12/18 09:27:14;;;;;;;15.90;12.13;;;;;;;5.13;88.28;99913.31;4092507;28;20356;-92
2023/12/18 09:29:17;;;;;;;17.25;11.60;;;;;;;5.18;88.65;99917.53;4082130;29;20693;-87
2023/12/18 09:31:23;;;;;;;18.52;11.57;;;;;;;5.18;87.35;99902.84;4088571;28;20626;-91
2023/12/18 09:33:26;;;;;;;15.63;13.00;;;;;;;5.22;88.50;99899.34;4096029;28;20688;-91
2023/12/18 09:35:29;;;;;;;23.42;15.23;;;;;;;5.29;88.19;99906.13;4078557;29;20242;-89
2023/12/18 09:37:32;;;;;;;18.52;14.43;;;;;;;5.33;88.78;99907.75;4078414;29;20206;-90
2023/12/18 09:39:35;;;;;;;14.88;11.95;;;;;;;5.39;88.98;99904.22;4091394;28;20263;-87